This is the latest recevied weather packets stored in our database for station/object JA0BES-13. If no packets are shown the sender has not sent any weather packets the latest 10 day(s).
| Time | Temp. | Humidity | Pressure | Rain* | Wind** | Luminosity | Snow |
|---|---|---|---|---|---|---|---|
| 1787392243 | 27.78° C | 100% | 1014 hPa | 0 mm | - | - | - |
| 1787391643 | 28.33° C | 100% | 1014 hPa | 0 mm | - | - | - |
| 1787391043 | 28.33° C | 100% | 1013.6 hPa | 0 mm | - | - | - |
| 1787390442 | 28.89° C | 99% | 1013.9 hPa | 0 mm | - | - | - |
| 1787389842 | 28.89° C | 99% | 1013.6 hPa | 0 mm | - | - | - |
| 1787389242 | 28.89° C | 98% | 1013.4 hPa | 0 mm | - | - | - |
| 1787388641 | 28.89° C | 98% | 1013.6 hPa | 0 mm | - | - | - |
| 1787388041 | 28.89° C | 99% | 1013.3 hPa | 0 mm | - | - | - |
| 1787387440 | 28.89° C | 99% | 1013.4 hPa | 0 mm | - | - | - |
| 1787386840 | 30° C | 96% | 1013.5 hPa | 0 mm | - | - | - |
| 1787386240 | 31.11° C | 90% | 1013.4 hPa | 0 mm | - | - | - |
| 1787385640 | 31.67° C | 88% | 1013.5 hPa | 0 mm | - | - | - |
| 1787385039 | 32.22° C | 86% | 1013.5 hPa | 0 mm | - | - | - |
| 1787384439 | 32.22° C | 87% | 1013.5 hPa | 0 mm | - | - | - |
| 1787383838 | 32.22° C | 85% | 1013.3 hPa | 0 mm | - | - | - |
| 1787383238 | 32.22° C | 86% | 1013.4 hPa | 0 mm | - | - | - |
| 1787382638 | 32.78° C | 85% | 1013.3 hPa | 0 mm | - | - | - |
| 1787382038 | 32.78° C | 83% | 1013.2 hPa | 0 mm | - | - | - |
| 1787381437 | 32.78° C | 82% | 1013.1 hPa | 0 mm | - | - | - |
| 1787379636 | 33.33° C | 82% | 1013 hPa | 0 mm | - | - | - |
| 1787379036 | 32.78° C | 85% | 1012.9 hPa | 0 mm | - | - | - |
| 1787378436 | 32.22° C | 86% | 1013.1 hPa | 0 mm | - | - | - |
| 1787377835 | 32.22° C | 85% | 1012.9 hPa | 0 mm | - | - | - |
| 1787377235 | 32.78° C | 84% | 1012.9 hPa | 0 mm | - | - | - |
| 1787376634 | 32.78° C | 82% | 1012.9 hPa | 0 mm | - | - | - |
* Rain since midnight (hover to see other rain measurements)
** Current wind speed in m/s (hover to see current wind gust speed)